sensor_id;sensor_type;location;lat;lon;timestamp;P1;durP1;ratioP1;P2;durP2;ratioP2
15929;SDS011;8064;51.142;4.780;2023-07-22T00:00:00;8.17;;;6.27;;
15929;SDS011;8064;51.142;4.780;2023-07-22T00:02:25;7.93;;;6.40;;
15929;SDS011;8064;51.142;4.780;2023-07-22T00:04:51;8.20;;;6.53;;
15929;SDS011;8064;51.142;4.780;2023-07-22T00:07:17;9.87;;;7.00;;
15929;SDS011;8064;51.142;4.780;2023-07-22T00:09:43;9.07;;;6.40;;
15929;SDS011;8064;51.142;4.780;2023-07-22T00:12:09;8.37;;;6.40;;
15929;SDS011;8064;51.142;4.780;2023-07-22T00:14:38;9.97;;;6.40;;
15929;SDS011;8064;51.142;4.780;2023-07-22T00:17:05;7.67;;;6.87;;
15929;SDS011;8064;51.142;4.780;2023-07-22T00:19:31;8.87;;;6.53;;
15929;SDS011;8064;51.142;4.780;2023-07-22T00:21:57;7.17;;;5.97;;
15929;SDS011;8064;51.142;4.780;2023-07-22T00:24:23;7.83;;;6.10;;
15929;SDS011;8064;51.142;4.780;2023-07-22T00:26:49;8.20;;;6.50;;
15929;SDS011;8064;51.142;4.780;2023-07-22T00:29:15;7.80;;;6.30;;
15929;SDS011;8064;51.142;4.780;2023-07-22T00:31:41;9.50;;;6.87;;
15929;SDS011;8064;51.142;4.780;2023-07-22T00:34:07;7.53;;;6.73;;
15929;SDS011;8064;51.142;4.780;2023-07-22T00:36:33;7.87;;;6.30;;
15929;SDS011;8064;51.142;4.780;2023-07-22T00:38:59;8.53;;;6.87;;
15929;SDS011;8064;51.142;4.780;2023-07-22T00:41:26;8.40;;;6.73;;
15929;SDS011;8064;51.142;4.780;2023-07-22T00:43:52;8.50;;;6.67;;
15929;SDS011;8064;51.142;4.780;2023-07-22T00:46:18;7.77;;;6.17;;
15929;SDS011;8064;51.142;4.780;2023-07-22T00:48:44;7.33;;;6.27;;
15929;SDS011;8064;51.142;4.780;2023-07-22T00:51:10;7.67;;;6.50;;
15929;SDS011;8064;51.142;4.780;2023-07-22T00:53:36;7.90;;;6.43;;
15929;SDS011;8064;51.142;4.780;2023-07-22T00:56:02;9.70;;;6.77;;
15929;SDS011;8064;51.142;4.780;2023-07-22T00:58:28;7.33;;;6.63;;
15929;SDS011;8064;51.142;4.780;2023-07-22T01:00:54;8.37;;;6.47;;
15929;SDS011;8064;51.142;4.780;2023-07-22T01:03:20;7.60;;;6.90;;
15929;SDS011;8064;51.142;4.780;2023-07-22T01:05:46;8.93;;;7.00;;
15929;SDS011;8064;51.142;4.780;2023-07-22T01:08:13;9.57;;;6.43;;
15929;SDS011;8064;51.142;4.780;2023-07-22T01:10:39;7.23;;;6.53;;
15929;SDS011;8064;51.142;4.780;2023-07-22T01:13:05;7.90;;;6.70;;
15929;SDS011;8064;51.142;4.780;2023-07-22T01:15:31;8.07;;;6.87;;
15929;SDS011;8064;51.142;4.780;2023-07-22T01:17:58;7.67;;;6.87;;
15929;SDS011;8064;51.142;4.780;2023-07-22T01:20:27;7.87;;;6.90;;
15929;SDS011;8064;51.142;4.780;2023-07-22T01:22:54;9.43;;;7.30;;
15929;SDS011;8064;51.142;4.780;2023-07-22T01:25:21;10.23;;;7.40;;
15929;SDS011;8064;51.142;4.780;2023-07-22T01:27:47;7.77;;;6.97;;
15929;SDS011;8064;51.142;4.780;2023-07-22T01:30:14;8.40;;;7.37;;
15929;SDS011;8064;51.142;4.780;2023-07-22T01:32:40;7.93;;;7.13;;
15929;SDS011;8064;51.142;4.780;2023-07-22T01:35:06;7.93;;;7.13;;
15929;SDS011;8064;51.142;4.780;2023-07-22T01:37:33;8.07;;;6.90;;
15929;SDS011;8064;51.142;4.780;2023-07-22T01:39:59;7.83;;;7.03;;
15929;SDS011;8064;51.142;4.780;2023-07-22T01:42:25;10.83;;;7.77;;
15929;SDS011;8064;51.142;4.780;2023-07-22T01:44:51;7.80;;;6.93;;
15929;SDS011;8064;51.142;4.780;2023-07-22T01:47:17;9.27;;;7.37;;
15929;SDS011;8064;51.142;4.780;2023-07-22T01:49:43;8.93;;;8.03;;
15929;SDS011;8064;51.142;4.780;2023-07-22T01:52:10;8.53;;;6.97;;
15929;SDS011;8064;51.142;4.780;2023-07-22T01:54:35;9.23;;;7.17;;
15929;SDS011;8064;51.142;4.780;2023-07-22T01:57:01;9.43;;;7.63;;
15929;SDS011;8064;51.142;4.780;2023-07-22T01:59:27;8.97;;;7.57;;
15929;SDS011;8064;51.142;4.780;2023-07-22T02:01:53;8.40;;;7.60;;
15929;SDS011;8064;51.142;4.780;2023-07-22T02:04:18;9.50;;;8.30;;
15929;SDS011;8064;51.142;4.780;2023-07-22T02:06:44;8.40;;;7.37;;
15929;SDS011;8064;51.142;4.780;2023-07-22T02:09:11;8.40;;;7.43;;
15929;SDS011;8064;51.142;4.780;2023-07-22T02:11:38;8.50;;;7.60;;
15929;SDS011;8064;51.142;4.780;2023-07-22T02:14:04;9.27;;;7.23;;
15929;SDS011;8064;51.142;4.780;2023-07-22T02:16:33;12.27;;;7.33;;
15929;SDS011;8064;51.142;4.780;2023-07-22T02:19:02;8.63;;;7.63;;
15929;SDS011;8064;51.142;4.780;2023-07-22T02:21:28;10.93;;;7.57;;
15929;SDS011;8064;51.142;4.780;2023-07-22T02:23:54;10.53;;;7.87;;
15929;SDS011;8064;51.142;4.780;2023-07-22T02:26:20;8.07;;;7.27;;
15929;SDS011;8064;51.142;4.780;2023-07-22T02:28:46;8.70;;;7.80;;
15929;SDS011;8064;51.142;4.780;2023-07-22T02:31:13;8.93;;;7.70;;
15929;SDS011;8064;51.142;4.780;2023-07-22T02:33:39;8.73;;;7.83;;
15929;SDS011;8064;51.142;4.780;2023-07-22T02:36:04;10.63;;;7.83;;
15929;SDS011;8064;51.142;4.780;2023-07-22T02:38:30;8.40;;;6.83;;
15929;SDS011;8064;51.142;4.780;2023-07-22T02:43:40;10.53;;;7.50;;
15929;SDS011;8064;51.142;4.780;2023-07-22T02:46:06;8.77;;;7.57;;
15929;SDS011;8064;51.142;4.780;2023-07-22T02:48:33;8.30;;;7.50;;
15929;SDS011;8064;51.142;4.780;2023-07-22T02:53:43;9.93;;;7.97;;
15929;SDS011;8064;51.142;4.780;2023-07-22T02:56:11;11.03;;;8.03;;
15929;SDS011;8064;51.142;4.780;2023-07-22T02:58:38;11.27;;;7.93;;
15929;SDS011;8064;51.142;4.780;2023-07-22T03:01:04;10.80;;;7.97;;
15929;SDS011;8064;51.142;4.780;2023-07-22T03:03:30;10.23;;;7.40;;
15929;SDS011;8064;51.142;4.780;2023-07-22T03:05:58;10.73;;;7.87;;
15929;SDS011;8064;51.142;4.780;2023-07-22T03:08:25;9.10;;;7.17;;
15929;SDS011;8064;51.142;4.780;2023-07-22T03:10:50;8.90;;;7.63;;
15929;SDS011;8064;51.142;4.780;2023-07-22T03:13:16;7.70;;;6.90;;
15929;SDS011;8064;51.142;4.780;2023-07-22T03:15:43;9.43;;;7.13;;
15929;SDS011;8064;51.142;4.780;2023-07-22T03:18:09;9.63;;;7.73;;
15929;SDS011;8064;51.142;4.780;2023-07-22T03:20:36;8.83;;;7.40;;
15929;SDS011;8064;51.142;4.780;2023-07-22T03:23:03;8.17;;;7.33;;
15929;SDS011;8064;51.142;4.780;2023-07-22T03:25:29;8.83;;;7.83;;
15929;SDS011;8064;51.142;4.780;2023-07-22T03:27:55;9.87;;;7.43;;
15929;SDS011;8064;51.142;4.780;2023-07-22T03:30:21;12.57;;;8.53;;
15929;SDS011;8064;51.142;4.780;2023-07-22T03:32:48;10.67;;;7.93;;
15929;SDS011;8064;51.142;4.780;2023-07-22T03:35:16;10.37;;;7.73;;
15929;SDS011;8064;51.142;4.780;2023-07-22T03:37:42;13.97;;;8.33;;
15929;SDS011;8064;51.142;4.780;2023-07-22T03:40:08;9.40;;;7.47;;
15929;SDS011;8064;51.142;4.780;2023-07-22T03:42:41;8.47;;;7.03;;
15929;SDS011;8064;51.142;4.780;2023-07-22T03:45:07;9.60;;;7.17;;
15929;SDS011;8064;51.142;4.780;2023-07-22T03:47:34;11.83;;;8.30;;
15929;SDS011;8064;51.142;4.780;2023-07-22T03:50:01;9.40;;;8.00;;
15929;SDS011;8064;51.142;4.780;2023-07-22T03:52:27;11.47;;;7.73;;
15929;SDS011;8064;51.142;4.780;2023-07-22T03:54:53;11.00;;;8.00;;
15929;SDS011;8064;51.142;4.780;2023-07-22T03:57:19;9.77;;;7.37;;
15929;SDS011;8064;51.142;4.780;2023-07-22T03:59:44;10.47;;;8.40;;
15929;SDS011;8064;51.142;4.780;2023-07-22T04:02:10;9.93;;;7.60;;
15929;SDS011;8064;51.142;4.780;2023-07-22T04:04:36;12.10;;;8.83;;
15929;SDS011;8064;51.142;4.780;2023-07-22T04:07:02;10.33;;;8.00;;
15929;SDS011;8064;51.142;4.780;2023-07-22T04:09:27;10.03;;;7.80;;
15929;SDS011;8064;51.142;4.780;2023-07-22T04:11:53;10.77;;;7.93;;
15929;SDS011;8064;51.142;4.780;2023-07-22T04:14:19;9.97;;;7.83;;
15929;SDS011;8064;51.142;4.780;2023-07-22T04:16:45;11.13;;;8.47;;
15929;SDS011;8064;51.142;4.780;2023-07-22T04:19:10;9.90;;;8.03;;
15929;SDS011;8064;51.142;4.780;2023-07-22T04:21:36;10.43;;;8.30;;
15929;SDS011;8064;51.142;4.780;2023-07-22T04:24:02;8.67;;;7.63;;
15929;SDS011;8064;51.142;4.780;2023-07-22T04:26:29;10.47;;;7.97;;
15929;SDS011;8064;51.142;4.780;2023-07-22T04:28:54;9.00;;;7.60;;
15929;SDS011;8064;51.142;4.780;2023-07-22T04:31:21;10.23;;;7.83;;
15929;SDS011;8064;51.142;4.780;2023-07-22T04:33:47;10.27;;;8.83;;
15929;SDS011;8064;51.142;4.780;2023-07-22T04:36:12;10.40;;;8.17;;
15929;SDS011;8064;51.142;4.780;2023-07-22T04:38:38;10.57;;;8.23;;
15929;SDS011;8064;51.142;4.780;2023-07-22T04:41:04;13.30;;;8.33;;
15929;SDS011;8064;51.142;4.780;2023-07-22T04:43:30;10.80;;;8.13;;
15929;SDS011;8064;51.142;4.780;2023-07-22T04:45:56;11.80;;;8.40;;
15929;SDS011;8064;51.142;4.780;2023-07-22T04:48:21;11.77;;;8.10;;
15929;SDS011;8064;51.142;4.780;2023-07-22T04:50:48;13.53;;;9.30;;
15929;SDS011;8064;51.142;4.780;2023-07-22T04:53:14;15.00;;;9.00;;
15929;SDS011;8064;51.142;4.780;2023-07-22T04:55:41;12.57;;;8.63;;
15929;SDS011;8064;51.142;4.780;2023-07-22T04:58:07;10.50;;;8.00;;
15929;SDS011;8064;51.142;4.780;2023-07-22T05:00:34;12.00;;;8.50;;
15929;SDS011;8064;51.142;4.780;2023-07-22T05:03:02;16.57;;;9.00;;
15929;SDS011;8064;51.142;4.780;2023-07-22T05:05:28;11.80;;;8.33;;
15929;SDS011;8064;51.142;4.780;2023-07-22T05:07:54;13.33;;;8.27;;
15929;SDS011;8064;51.142;4.780;2023-07-22T05:10:19;12.83;;;9.10;;
15929;SDS011;8064;51.142;4.780;2023-07-22T05:12:45;11.83;;;8.63;;
15929;SDS011;8064;51.142;4.780;2023-07-22T05:15:11;11.97;;;9.10;;
15929;SDS011;8064;51.142;4.780;2023-07-22T05:17:38;11.13;;;8.97;;
15929;SDS011;8064;51.142;4.780;2023-07-22T05:20:04;13.70;;;9.37;;
15929;SDS011;8064;51.142;4.780;2023-07-22T05:22:34;14.67;;;8.70;;
15929;SDS011;8064;51.142;4.780;2023-07-22T05:25:00;11.70;;;8.87;;
15929;SDS011;8064;51.142;4.780;2023-07-22T05:27:26;12.33;;;9.50;;
15929;SDS011;8064;51.142;4.780;2023-07-22T05:29:52;15.80;;;9.10;;
15929;SDS011;8064;51.142;4.780;2023-07-22T05:32:18;12.57;;;8.87;;
15929;SDS011;8064;51.142;4.780;2023-07-22T05:34:43;15.00;;;9.13;;
15929;SDS011;8064;51.142;4.780;2023-07-22T05:37:09;11.77;;;9.40;;
15929;SDS011;8064;51.142;4.780;2023-07-22T05:39:35;12.80;;;8.80;;
15929;SDS011;8064;51.142;4.780;2023-07-22T05:42:00;13.33;;;9.17;;
15929;SDS011;8064;51.142;4.780;2023-07-22T05:44:26;12.77;;;9.00;;
15929;SDS011;8064;51.142;4.780;2023-07-22T05:46:52;11.27;;;9.23;;
15929;SDS011;8064;51.142;4.780;2023-07-22T05:49:18;14.07;;;9.17;;
15929;SDS011;8064;51.142;4.780;2023-07-22T05:51:43;15.93;;;10.03;;
15929;SDS011;8064;51.142;4.780;2023-07-22T05:54:09;14.23;;;8.70;;
15929;SDS011;8064;51.142;4.780;2023-07-22T05:56:35;12.87;;;9.03;;
15929;SDS011;8064;51.142;4.780;2023-07-22T05:59:01;12.63;;;8.70;;
15929;SDS011;8064;51.142;4.780;2023-07-22T06:01:26;15.43;;;9.03;;
15929;SDS011;8064;51.142;4.780;2023-07-22T06:03:52;13.97;;;9.10;;
15929;SDS011;8064;51.142;4.780;2023-07-22T06:06:18;17.20;;;9.67;;
15929;SDS011;8064;51.142;4.780;2023-07-22T06:08:44;13.00;;;9.27;;
15929;SDS011;8064;51.142;4.780;2023-07-22T06:11:10;15.33;;;9.33;;
15929;SDS011;8064;51.142;4.780;2023-07-22T06:13:35;14.57;;;8.80;;
15929;SDS011;8064;51.142;4.780;2023-07-22T06:16:01;12.43;;;8.60;;
15929;SDS011;8064;51.142;4.780;2023-07-22T06:18:27;14.50;;;9.17;;
15929;SDS011;8064;51.142;4.780;2023-07-22T06:20:53;14.03;;;9.70;;
15929;SDS011;8064;51.142;4.780;2023-07-22T06:23:19;15.50;;;9.20;;
15929;SDS011;8064;51.142;4.780;2023-07-22T06:25:45;14.33;;;8.43;;
15929;SDS011;8064;51.142;4.780;2023-07-22T06:28:10;12.57;;;8.93;;
15929;SDS011;8064;51.142;4.780;2023-07-22T06:30:36;15.40;;;9.47;;
15929;SDS011;8064;51.142;4.780;2023-07-22T06:33:02;15.93;;;9.43;;
15929;SDS011;8064;51.142;4.780;2023-07-22T06:35:28;16.77;;;9.13;;
15929;SDS011;8064;51.142;4.780;2023-07-22T06:37:53;14.83;;;8.27;;
15929;SDS011;8064;51.142;4.780;2023-07-22T06:40:19;11.00;;;8.17;;
15929;SDS011;8064;51.142;4.780;2023-07-22T06:42:45;12.07;;;8.63;;
15929;SDS011;8064;51.142;4.780;2023-07-22T06:45:11;11.93;;;9.10;;
15929;SDS011;8064;51.142;4.780;2023-07-22T06:47:36;11.50;;;8.17;;
15929;SDS011;8064;51.142;4.780;2023-07-22T06:50:02;11.27;;;8.57;;
15929;SDS011;8064;51.142;4.780;2023-07-22T06:52:29;12.47;;;8.37;;
15929;SDS011;8064;51.142;4.780;2023-07-22T06:54:56;17.40;;;8.00;;
15929;SDS011;8064;51.142;4.780;2023-07-22T06:57:22;16.20;;;8.67;;
15929;SDS011;8064;51.142;4.780;2023-07-22T06:59:47;13.17;;;8.43;;
15929;SDS011;8064;51.142;4.780;2023-07-22T07:02:16;14.93;;;9.17;;
15929;SDS011;8064;51.142;4.780;2023-07-22T07:04:42;15.97;;;8.40;;
15929;SDS011;8064;51.142;4.780;2023-07-22T07:07:09;12.37;;;8.10;;
15929;SDS011;8064;51.142;4.780;2023-07-22T07:12:23;10.30;;;7.53;;
15929;SDS011;8064;51.142;4.780;2023-07-22T07:14:50;12.63;;;6.67;;
15929;SDS011;8064;51.142;4.780;2023-07-22T07:17:17;11.90;;;7.07;;
15929;SDS011;8064;51.142;4.780;2023-07-22T07:19:43;15.67;;;7.67;;
15929;SDS011;8064;51.142;4.780;2023-07-22T07:22:08;10.87;;;6.57;;
15929;SDS011;8064;51.142;4.780;2023-07-22T07:24:34;11.87;;;7.20;;
15929;SDS011;8064;51.142;4.780;2023-07-22T07:27:00;14.13;;;7.03;;
15929;SDS011;8064;51.142;4.780;2023-07-22T07:29:25;12.10;;;7.23;;
15929;SDS011;8064;51.142;4.780;2023-07-22T07:31:51;15.13;;;6.47;;
15929;SDS011;8064;51.142;4.780;2023-07-22T07:34:17;9.60;;;5.90;;
15929;SDS011;8064;51.142;4.780;2023-07-22T07:36:43;13.33;;;6.27;;
15929;SDS011;8064;51.142;4.780;2023-07-22T07:39:08;10.37;;;6.53;;
15929;SDS011;8064;51.142;4.780;2023-07-22T07:41:34;10.53;;;5.87;;
15929;SDS011;8064;51.142;4.780;2023-07-22T07:44:00;10.60;;;6.13;;
15929;SDS011;8064;51.142;4.780;2023-07-22T07:46:27;10.70;;;5.77;;
15929;SDS011;8064;51.142;4.780;2023-07-22T07:48:54;8.67;;;5.27;;
15929;SDS011;8064;51.142;4.780;2023-07-22T07:51:21;11.67;;;6.03;;
15929;SDS011;8064;51.142;4.780;2023-07-22T07:53:51;10.93;;;5.70;;
15929;SDS011;8064;51.142;4.780;2023-07-22T07:56:17;11.67;;;5.53;;
15929;SDS011;8064;51.142;4.780;2023-07-22T07:58:45;8.73;;;5.60;;
15929;SDS011;8064;51.142;4.780;2023-07-22T08:01:12;11.87;;;5.50;;
15929;SDS011;8064;51.142;4.780;2023-07-22T08:03:38;12.57;;;5.23;;
15929;SDS011;8064;51.142;4.780;2023-07-22T08:06:06;8.87;;;5.23;;
15929;SDS011;8064;51.142;4.780;2023-07-22T08:08:33;7.97;;;4.50;;
15929;SDS011;8064;51.142;4.780;2023-07-22T08:11:01;10.00;;;4.73;;
15929;SDS011;8064;51.142;4.780;2023-07-22T08:13:28;9.00;;;5.00;;
15929;SDS011;8064;51.142;4.780;2023-07-22T08:15:56;10.45;;;4.53;;
15929;SDS011;8064;51.142;4.780;2023-07-22T08:18:23;8.15;;;4.90;;
15929;SDS011;8064;51.142;4.780;2023-07-22T08:20:49;10.40;;;5.20;;
15929;SDS011;8064;51.142;4.780;2023-07-22T08:23:16;12.98;;;5.00;;
15929;SDS011;8064;51.142;4.780;2023-07-22T08:25:42;10.50;;;4.80;;
15929;SDS011;8064;51.142;4.780;2023-07-22T08:28:07;7.68;;;4.15;;
15929;SDS011;8064;51.142;4.780;2023-07-22T08:30:34;10.43;;;5.03;;
15929;SDS011;8064;51.142;4.780;2023-07-22T08:33:00;5.63;;;4.32;;
15929;SDS011;8064;51.142;4.780;2023-07-22T08:35:26;8.35;;;3.67;;
15929;SDS011;8064;51.142;4.780;2023-07-22T08:37:52;5.55;;;3.72;;
15929;SDS011;8064;51.142;4.780;2023-07-22T08:40:19;9.15;;;4.43;;
15929;SDS011;8064;51.142;4.780;2023-07-22T08:42:45;6.75;;;4.28;;
15929;SDS011;8064;51.142;4.780;2023-07-22T08:45:13;9.93;;;4.55;;
15929;SDS011;8064;51.142;4.780;2023-07-22T08:47:44;8.07;;;3.80;;
15929;SDS011;8064;51.142;4.780;2023-07-22T08:50:11;7.80;;;3.78;;
15929;SDS011;8064;51.142;4.780;2023-07-22T08:52:41;6.05;;;3.33;;
15929;SDS011;8064;51.142;4.780;2023-07-22T08:55:08;9.23;;;3.92;;
15929;SDS011;8064;51.142;4.780;2023-07-22T08:57:35;7.65;;;3.70;;
15929;SDS011;8064;51.142;4.780;2023-07-22T09:00:02;6.85;;;3.63;;
15929;SDS011;8064;51.142;4.780;2023-07-22T09:02:31;6.15;;;3.65;;
15929;SDS011;8064;51.142;4.780;2023-07-22T09:04:58;5.80;;;3.08;;
15929;SDS011;8064;51.142;4.780;2023-07-22T09:07:24;7.85;;;3.42;;
15929;SDS011;8064;51.142;4.780;2023-07-22T09:09:51;6.20;;;2.85;;
15929;SDS011;8064;51.142;4.780;2023-07-22T09:12:18;4.57;;;2.80;;
15929;SDS011;8064;51.142;4.780;2023-07-22T09:14:46;5.30;;;2.38;;
15929;SDS011;8064;51.142;4.780;2023-07-22T09:17:13;4.88;;;2.70;;
15929;SDS011;8064;51.142;4.780;2023-07-22T09:19:39;4.88;;;2.80;;
15929;SDS011;8064;51.142;4.780;2023-07-22T09:22:04;7.10;;;3.50;;
15929;SDS011;8064;51.142;4.780;2023-07-22T09:24:32;7.70;;;3.72;;
15929;SDS011;8064;51.142;4.780;2023-07-22T09:26:58;6.40;;;2.85;;
15929;SDS011;8064;51.142;4.780;2023-07-22T09:32:09;6.47;;;3.20;;
15929;SDS011;8064;51.142;4.780;2023-07-22T09:34:35;5.88;;;2.67;;
15929;SDS011;8064;51.142;4.780;2023-07-22T09:37:01;5.78;;;3.30;;
15929;SDS011;8064;51.142;4.780;2023-07-22T09:39:29;8.45;;;3.25;;
15929;SDS011;8064;51.142;4.780;2023-07-22T09:41:55;7.20;;;2.95;;
15929;SDS011;8064;51.142;4.780;2023-07-22T09:44:22;5.43;;;2.60;;
15929;SDS011;8064;51.142;4.780;2023-07-22T09:46:48;5.45;;;2.60;;
15929;SDS011;8064;51.142;4.780;2023-07-22T09:49:16;4.40;;;2.25;;
15929;SDS011;8064;51.142;4.780;2023-07-22T09:51:43;5.03;;;2.00;;
15929;SDS011;8064;51.142;4.780;2023-07-22T09:54:09;4.35;;;2.13;;
15929;SDS011;8064;51.142;4.780;2023-07-22T09:59:19;4.07;;;2.47;;
15929;SDS011;8064;51.142;4.780;2023-07-22T10:01:48;3.17;;;2.17;;
15929;SDS011;8064;51.142;4.780;2023-07-22T10:04:15;6.07;;;2.28;;
15929;SDS011;8064;51.142;4.780;2023-07-22T10:06:43;4.13;;;2.30;;
15929;SDS011;8064;51.142;4.780;2023-07-22T10:09:10;4.57;;;2.03;;
15929;SDS011;8064;51.142;4.780;2023-07-22T10:11:37;9.18;;;2.20;;
15929;SDS011;8064;51.142;4.780;2023-07-22T10:14:04;4.15;;;1.58;;
15929;SDS011;8064;51.142;4.780;2023-07-22T10:16:30;4.45;;;1.73;;
15929;SDS011;8064;51.142;4.780;2023-07-22T10:18:57;4.20;;;1.70;;
15929;SDS011;8064;51.142;4.780;2023-07-22T10:21:24;4.82;;;1.90;;
15929;SDS011;8064;51.142;4.780;2023-07-22T10:23:51;5.63;;;1.90;;
15929;SDS011;8064;51.142;4.780;2023-07-22T10:26:18;3.95;;;1.80;;
15929;SDS011;8064;51.142;4.780;2023-07-22T10:28:45;3.17;;;1.73;;
15929;SDS011;8064;51.142;4.780;2023-07-22T10:31:12;2.40;;;1.70;;
15929;SDS011;8064;51.142;4.780;2023-07-22T10:33:43;3.97;;;1.90;;
15929;SDS011;8064;51.142;4.780;2023-07-22T10:36:13;3.63;;;1.92;;
15929;SDS011;8064;51.142;4.780;2023-07-22T10:38:41;3.63;;;1.80;;
15929;SDS011;8064;51.142;4.780;2023-07-22T10:46:36;3.88;;;1.92;;
15929;SDS011;8064;51.142;4.780;2023-07-22T10:49:18;3.28;;;2.20;;
15929;SDS011;8064;51.142;4.780;2023-07-22T10:51:56;2.58;;;1.83;;
15929;SDS011;8064;51.142;4.780;2023-07-22T10:54:33;3.17;;;1.52;;
15929;SDS011;8064;51.142;4.780;2023-07-22T10:57:02;3.65;;;1.52;;
15929;SDS011;8064;51.142;4.780;2023-07-22T10:59:29;3.53;;;1.60;;
15929;SDS011;8064;51.142;4.780;2023-07-22T11:01:59;6.18;;;2.20;;
15929;SDS011;8064;51.142;4.780;2023-07-22T11:04:26;2.67;;;1.60;;
15929;SDS011;8064;51.142;4.780;2023-07-22T11:07:10;2.97;;;1.58;;
15929;SDS011;8064;51.142;4.780;2023-07-22T11:09:37;3.55;;;1.90;;
15929;SDS011;8064;51.142;4.780;2023-07-22T11:14:50;3.53;;;1.73;;
15929;SDS011;8064;51.142;4.780;2023-07-22T11:17:18;2.35;;;1.48;;
15929;SDS011;8064;51.142;4.780;2023-07-22T11:19:55;2.67;;;1.60;;
15929;SDS011;8064;51.142;4.780;2023-07-22T11:22:21;1.70;;;1.42;;
15929;SDS011;8064;51.142;4.780;2023-07-22T11:24:47;3.33;;;1.90;;
15929;SDS011;8064;51.142;4.780;2023-07-22T11:27:13;1.52;;;1.40;;
15929;SDS011;8064;51.142;4.780;2023-07-22T11:29:39;3.78;;;1.58;;
15929;SDS011;8064;51.142;4.780;2023-07-22T11:32:05;2.03;;;1.38;;
15929;SDS011;8064;51.142;4.780;2023-07-22T11:34:40;2.45;;;1.60;;
15929;SDS011;8064;51.142;4.780;2023-07-22T11:37:06;2.42;;;1.60;;
15929;SDS011;8064;51.142;4.780;2023-07-22T11:39:32;2.63;;;1.48;;
15929;SDS011;8064;51.142;4.780;2023-07-22T11:41:59;2.78;;;1.33;;
15929;SDS011;8064;51.142;4.780;2023-07-22T11:44:29;2.92;;;1.60;;
15929;SDS011;8064;51.142;4.780;2023-07-22T11:47:01;3.25;;;1.23;;
15929;SDS011;8064;51.142;4.780;2023-07-22T11:49:29;3.75;;;1.40;;
15929;SDS011;8064;51.142;4.780;2023-07-22T11:51:57;2.35;;;1.30;;
15929;SDS011;8064;51.142;4.780;2023-07-22T11:54:27;2.03;;;1.30;;
15929;SDS011;8064;51.142;4.780;2023-07-22T11:57:09;1.90;;;1.25;;
15929;SDS011;8064;51.142;4.780;2023-07-22T11:59:40;3.75;;;1.50;;
15929;SDS011;8064;51.142;4.780;2023-07-22T12:05:03;1.58;;;1.40;;
15929;SDS011;8064;51.142;4.780;2023-07-22T12:07:31;5.32;;;1.48;;
15929;SDS011;8064;51.142;4.780;2023-07-22T12:10:00;1.58;;;1.27;;
15929;SDS011;8064;51.142;4.780;2023-07-22T12:17:55;3.75;;;1.42;;
15929;SDS011;8064;51.142;4.780;2023-07-22T12:20:33;3.40;;;1.70;;
15929;SDS011;8064;51.142;4.780;2023-07-22T12:23:00;3.53;;;1.58;;
15929;SDS011;8064;51.142;4.780;2023-07-22T12:25:26;2.53;;;1.52;;
15929;SDS011;8064;51.142;4.780;2023-07-22T12:27:53;3.30;;;1.42;;
15929;SDS011;8064;51.142;4.780;2023-07-22T12:30:19;1.42;;;1.13;;
15929;SDS011;8064;51.142;4.780;2023-07-22T12:32:45;2.17;;;1.15;;
15929;SDS011;8064;51.142;4.780;2023-07-22T12:35:11;2.45;;;1.25;;
15929;SDS011;8064;51.142;4.780;2023-07-22T12:37:38;4.80;;;1.60;;
15929;SDS011;8064;51.142;4.780;2023-07-22T12:40:04;2.83;;;1.70;;
15929;SDS011;8064;51.142;4.780;2023-07-22T12:42:33;3.08;;;1.45;;
15929;SDS011;8064;51.142;4.780;2023-07-22T12:44:59;2.70;;;1.38;;
15929;SDS011;8064;51.142;4.780;2023-07-22T12:47:25;3.13;;;1.70;;
15929;SDS011;8064;51.142;4.780;2023-07-22T12:49:51;2.30;;;1.63;;
15929;SDS011;8064;51.142;4.780;2023-07-22T12:52:17;11.80;;;1.73;;
15929;SDS011;8064;51.142;4.780;2023-07-22T12:54:43;1.88;;;1.50;;
15929;SDS011;8064;51.142;4.780;2023-07-22T12:57:08;3.10;;;1.60;;
15929;SDS011;8064;51.142;4.780;2023-07-22T12:59:34;3.00;;;1.30;;
15929;SDS011;8064;51.142;4.780;2023-07-22T13:02:00;3.72;;;1.50;;
15929;SDS011;8064;51.142;4.780;2023-07-22T13:04:26;2.47;;;1.40;;
15929;SDS011;8064;51.142;4.780;2023-07-22T13:06:51;3.35;;;1.75;;
15929;SDS011;8064;51.142;4.780;2023-07-22T13:09:18;3.28;;;1.73;;
15929;SDS011;8064;51.142;4.780;2023-07-22T13:11:44;3.08;;;1.42;;
15929;SDS011;8064;51.142;4.780;2023-07-22T13:14:10;4.53;;;1.80;;
15929;SDS011;8064;51.142;4.780;2023-07-22T13:16:36;4.45;;;1.52;;
15929;SDS011;8064;51.142;4.780;2023-07-22T13:19:02;4.10;;;1.60;;
15929;SDS011;8064;51.142;4.780;2023-07-22T13:21:28;3.95;;;1.77;;
15929;SDS011;8064;51.142;4.780;2023-07-22T13:23:54;1.92;;;1.70;;
15929;SDS011;8064;51.142;4.780;2023-07-22T13:26:20;3.33;;;1.50;;
15929;SDS011;8064;51.142;4.780;2023-07-22T13:28:46;2.63;;;1.58;;
15929;SDS011;8064;51.142;4.780;2023-07-22T13:31:12;2.25;;;1.48;;
15929;SDS011;8064;51.142;4.780;2023-07-22T13:33:38;1.90;;;1.48;;
15929;SDS011;8064;51.142;4.780;2023-07-22T13:36:04;1.98;;;1.48;;
15929;SDS011;8064;51.142;4.780;2023-07-22T13:38:29;4.18;;;1.58;;
15929;SDS011;8064;51.142;4.780;2023-07-22T13:40:55;2.58;;;1.45;;
15929;SDS011;8064;51.142;4.780;2023-07-22T13:43:21;2.15;;;1.50;;
15929;SDS011;8064;51.142;4.780;2023-07-22T13:45:47;1.90;;;1.40;;
15929;SDS011;8064;51.142;4.780;2023-07-22T13:48:12;2.10;;;1.48;;
15929;SDS011;8064;51.142;4.780;2023-07-22T13:50:38;4.40;;;1.80;;
15929;SDS011;8064;51.142;4.780;2023-07-22T13:53:05;2.70;;;1.27;;
15929;SDS011;8064;51.142;4.780;2023-07-22T13:55:31;3.17;;;1.38;;
15929;SDS011;8064;51.142;4.780;2023-07-22T13:57:57;2.30;;;1.67;;
15929;SDS011;8064;51.142;4.780;2023-07-22T14:00:23;2.47;;;1.60;;
15929;SDS011;8064;51.142;4.780;2023-07-22T14:02:48;3.47;;;1.60;;
15929;SDS011;8064;51.142;4.780;2023-07-22T14:05:14;2.55;;;1.60;;
15929;SDS011;8064;51.142;4.780;2023-07-22T14:07:40;2.17;;;1.55;;
15929;SDS011;8064;51.142;4.780;2023-07-22T14:10:06;2.35;;;1.33;;
15929;SDS011;8064;51.142;4.780;2023-07-22T14:12:33;2.42;;;1.58;;
15929;SDS011;8064;51.142;4.780;2023-07-22T14:14:59;2.47;;;1.55;;
15929;SDS011;8064;51.142;4.780;2023-07-22T14:17:25;2.50;;;1.45;;
15929;SDS011;8064;51.142;4.780;2023-07-22T14:19:51;3.72;;;1.48;;
15929;SDS011;8064;51.142;4.780;2023-07-22T14:22:17;4.22;;;2.03;;
15929;SDS011;8064;51.142;4.780;2023-07-22T14:24:42;4.20;;;1.70;;
15929;SDS011;8064;51.142;4.780;2023-07-22T14:27:08;3.78;;;1.90;;
15929;SDS011;8064;51.142;4.780;2023-07-22T14:29:34;5.70;;;1.40;;
15929;SDS011;8064;51.142;4.780;2023-07-22T14:32:00;3.40;;;1.77;;
15929;SDS011;8064;51.142;4.780;2023-07-22T14:34:26;3.05;;;1.52;;
15929;SDS011;8064;51.142;4.780;2023-07-22T14:36:52;2.03;;;1.63;;
15929;SDS011;8064;51.142;4.780;2023-07-22T14:39:18;1.60;;;1.50;;
15929;SDS011;8064;51.142;4.780;2023-07-22T14:41:43;4.22;;;1.70;;
15929;SDS011;8064;51.142;4.780;2023-07-22T14:44:09;3.25;;;1.52;;
15929;SDS011;8064;51.142;4.780;2023-07-22T14:46:35;3.13;;;1.50;;
15929;SDS011;8064;51.142;4.780;2023-07-22T14:49:01;3.10;;;1.60;;
15929;SDS011;8064;51.142;4.780;2023-07-22T14:51:27;2.13;;;1.40;;
15929;SDS011;8064;51.142;4.780;2023-07-22T14:53:53;2.78;;;1.70;;
15929;SDS011;8064;51.142;4.780;2023-07-22T14:56:19;2.85;;;1.70;;
15929;SDS011;8064;51.142;4.780;2023-07-22T14:58:45;3.90;;;1.63;;
15929;SDS011;8064;51.142;4.780;2023-07-22T15:01:10;2.85;;;1.70;;
15929;SDS011;8064;51.142;4.780;2023-07-22T15:03:36;2.58;;;1.63;;
15929;SDS011;8064;51.142;4.780;2023-07-22T15:06:03;2.05;;;1.38;;
15929;SDS011;8064;51.142;4.780;2023-07-22T15:08:29;2.63;;;1.52;;
15929;SDS011;8064;51.142;4.780;2023-07-22T15:10:55;2.55;;;1.30;;
15929;SDS011;8064;51.142;4.780;2023-07-22T15:13:21;2.55;;;1.50;;
15929;SDS011;8064;51.142;4.780;2023-07-22T15:15:47;5.80;;;1.58;;
15929;SDS011;8064;51.142;4.780;2023-07-22T15:18:13;4.57;;;1.27;;
15929;SDS011;8064;51.142;4.780;2023-07-22T15:20:38;3.20;;;1.60;;
15929;SDS011;8064;51.142;4.780;2023-07-22T15:23:04;2.17;;;1.38;;